Boo Sonier — WDG3281 — position and weather

sailwx.info

Track history (hours):
 
Tides and Currents Weather Stations Pressure Air Temp Water Temp Dewpoint Dewpoint Depression Visibility Wind Speed Wind Dir Waves Ship Positions

Boo Sonier

Owner: LeBeouf Bros. Towing, LLC, Houma, LA. More information available from US FCC via Universal Licensing System and Coast Guard Vessel Documentation Center.

Last reported at 2015-Mar-30 05:09 UTC. Time now 2015-Mar-31 02:04 UTC.
Position N 30°01' W 089°54'.

Length 21 m.

Type: Tug. MMSI: 367524420.

Date/timePositionNaut miles runAvg speedWind from/ knotsBaromVisibWave heightAir tempDewpointWater temp
2015-Mar-30 05:09N 30°01' W 089°54'5 2.7
2015-Mar-30 03:16N 29°60' W 089°60'0 0.0
2015-Mar-29 21:25N 29°60' W 089°60'0 0.0
2015-Mar-29 15:22N 29°60' W 089°60'0 0.0
2015-Mar-29 11:28N 29°60' W 089°60'4 1.7
2015-Mar-29 09:09N 30°01' W 089°55'  
2015-Mar-24 11:18N 29°60' W 089°59'0 0.0
2015-Mar-24 09:15N 29°60' W 089°59'0 0.0
2015-Mar-24 08:12N 29°60' W 089°59'0 0.0
2015-Mar-24 06:30N 29°60' W 089°59'0 0.0
2015-Mar-24 03:18N 29°60' W 089°59'0 0.0
2015-Mar-24 02:12N 29°60' W 089°59'0 0.0
2015-Mar-23 21:21N 29°60' W 089°59'1 0.4
2015-Mar-23 18:32N 29°60' W 090°00'4 0.4
2015-Mar-23 09:32N 29°56' W 089°60'0 0.1
2015-Mar-23 08:23N 29°56' W 089°60'0 0.0
2015-Mar-23 01:29N 29°56' W 089°60'0 0.0
2015-Mar-23 00:08N 29°56' W 089°60'0 0.4
2015-Mar-22 23:28N 29°56' W 089°60'2 0.4
2015-Mar-22 19:18N 29°54' W 089°59'  
Track history (hours):
 
Tides and Currents Weather Stations Pressure Air Temp Water Temp Dewpoint Dewpoint Depression Visibility Wind Speed Wind Dir Waves Ship Positions

Boo Sonier

Owner: LeBeouf Bros. Towing, LLC, Houma, LA. More information available from US FCC via Universal Licensing System and Coast Guard Vessel Documentation Center.

Last reported at 2015-Mar-30 05:09 UTC. Time now 2015-Mar-31 02:04 UTC.
Position N 30°01' W 089°54'.

Length 21 m.

Type: Tug. MMSI: 367524420.

Date/timePositionNaut miles runAvg speedWind from/ knotsBaromVisibWave heightAir tempDewpointWater temp
2015-Mar-30 05:09N 30°01' W 089°54'5 2.7
2015-Mar-30 03:16N 29°60' W 089°60'0 0.0
2015-Mar-29 21:25N 29°60' W 089°60'0 0.0
2015-Mar-29 15:22N 29°60' W 089°60'0 0.0
2015-Mar-29 11:28N 29°60' W 089°60'4 1.7
2015-Mar-29 09:09N 30°01' W 089°55'  
2015-Mar-24 11:18N 29°60' W 089°59'0 0.0
2015-Mar-24 09:15N 29°60' W 089°59'0 0.0
2015-Mar-24 08:12N 29°60' W 089°59'0 0.0
2015-Mar-24 06:30N 29°60' W 089°59'0 0.0
2015-Mar-24 03:18N 29°60' W 089°59'0 0.0
2015-Mar-24 02:12N 29°60' W 089°59'0 0.0
2015-Mar-23 21:21N 29°60' W 089°59'1 0.4
2015-Mar-23 18:32N 29°60' W 090°00'4 0.4
2015-Mar-23 09:32N 29°56' W 089°60'0 0.1
2015-Mar-23 08:23N 29°56' W 089°60'0 0.0
2015-Mar-23 01:29N 29°56' W 089°60'0 0.0
2015-Mar-23 00:08N 29°56' W 089°60'0 0.4
2015-Mar-22 23:28N 29°56' W 089°60'2 0.4
2015-Mar-22 19:18N 29°54' W 089°59'  

Dump ship's entire track history